Time;durP1;ratioP1;P1;durP2;ratioP2;P2;SDS_P1;SDS_P2;PMS_P1;PMS_P2;Temp;Humidity;BMP_temperature;BMP_pressure;BME280_temperature;BME280_humidity;BME280_pressure;Samples;Min_cycle;Max_cycle;Signal;HPM_P1;HPM_P2
2022/01/20 00:01:47;;;;;;;12.73;5.68;;;7.60;99.90;;;;;;5072582;28;20061;-76
2022/01/20 00:04:42;;;;;;;6.53;3.50;;;7.60;99.90;;;;;;5070448;28;20047;-76
2022/01/20 00:28:37;;;;;;;12.90;5.63;;;7.80;99.90;;;;;;5069041;28;20041;-76
2022/01/20 00:31:25;;;;;;;10.32;5.85;;;7.70;99.90;;;;;;5067812;28;20044;-76
2022/01/20 00:33:53;;;;;;;15.93;6.35;;;7.70;99.90;;;;;;5070532;28;20586;-76
2022/01/20 00:39:05;;;;;;;7.38;4.10;;;7.50;99.90;;;;;;5070472;28;20052;-76
2022/01/20 00:41:31;;;;;;;11.27;4.70;;;7.40;99.90;;;;;;5069910;28;20099;-76
2022/01/20 00:43:58;;;;;;;9.55;5.28;;;7.30;99.90;;;;;;5072243;28;20033;-76
2022/01/20 00:46:23;;;;;;;12.38;6.93;;;7.40;99.90;;;;;;5072664;28;20826;-76
2022/01/20 00:48:49;;;;;;;12.88;5.13;;;7.70;99.90;;;;;;5067421;28;20053;-76
2022/01/20 00:51:15;;;;;;;16.23;5.43;;;7.20;99.90;;;;;;5071180;28;20037;-76
2022/01/20 00:53:44;;;;;;;10.75;5.75;;;7.20;99.90;;;;;;5070199;28;20836;-75
2022/01/20 00:56:13;;;;;;;12.20;5.03;;;7.20;99.90;;;;;;5062876;28;20364;-76
2022/01/20 00:58:39;;;;;;;12.82;6.50;;;7.20;99.90;;;;;;5067982;28;20044;-76
2022/01/20 01:01:05;;;;;;;13.07;6.20;;;7.40;99.90;;;;;;5072814;28;20547;-76
2022/01/20 01:03:31;;;;;;;11.45;5.70;;;7.10;99.90;;;;;;5069920;28;20043;-75
2022/01/20 01:06:27;;;;;;;11.45;5.80;;;7.10;99.90;;;;;;5072543;28;20469;-76
2022/01/20 01:08:53;;;;;;;10.63;6.05;;;7.00;99.90;;;;;;5061667;28;20032;-76
2022/01/20 01:11:21;;;;;;;9.70;4.85;;;7.00;99.90;;;;;;5066576;28;20053;-76
2022/01/20 01:13:47;;;;;;;13.27;6.22;;;7.00;99.90;;;;;;5067913;28;20052;-76
2022/01/20 01:16:14;;;;;;;9.50;5.18;;;7.00;99.90;;;;;;5070314;28;20518;-76
2022/01/20 01:23:53;;;;;;;11.02;5.50;;;6.90;99.90;;;;;;5070010;28;20056;-76
2022/01/20 01:26:20;;;;;;;14.35;5.70;;;6.90;99.90;;;;;;5071460;28;20048;-76
2022/01/20 01:28:46;;;;;;;10.98;5.75;;;6.90;99.90;;;;;;5066450;28;20048;-76
2022/01/20 01:31:34;;;;;;;16.25;7.18;;;6.90;99.90;;;;;;5070028;28;20052;-76
2022/01/20 01:34:12;;;;;;;12.25;5.43;;;7.30;99.90;;;;;;5064336;28;20037;-76
2022/01/20 01:37:04;;;;;;;10.27;5.43;;;6.80;99.90;;;;;;5069041;28;20516;-75
2022/01/20 01:39:30;;;;;;;6.55;2.92;;;6.80;99.90;;;;;;5068677;28;20041;-76
2022/01/20 01:41:57;;;;;;;9.85;5.32;;;6.70;99.90;;;;;;5064787;28;20049;-76
2022/01/20 01:44:27;;;;;;;10.60;5.03;;;6.70;99.90;;;;;;5070033;28;20040;-76
2022/01/20 01:46:54;;;;;;;10.23;4.68;;;6.70;99.90;;;;;;5070593;28;20079;-76
2022/01/20 01:49:21;;;;;;;9.32;5.50;;;6.80;99.90;;;;;;5068364;28;20055;-75
2022/01/20 01:51:47;;;;;;;12.40;5.38;;;6.70;99.90;;;;;;5071366;28;20127;-76
2022/01/20 01:54:14;;;;;;;9.82;5.43;;;6.70;99.90;;;;;;5065670;28;20095;-75
2022/01/20 01:56:41;;;;;;;10.95;5.53;;;6.70;99.90;;;;;;5066985;28;20041;-76
2022/01/20 01:59:08;;;;;;;12.13;5.28;;;6.60;99.90;;;;;;5067633;28;20052;-76
2022/01/20 02:01:37;;;;;;;12.45;5.30;;;7.20;99.90;;;;;;5071429;28;20056;-76
2022/01/20 02:04:19;;;;;;;10.60;4.63;;;6.60;99.90;;;;;;5070703;28;20090;-76
2022/01/20 02:20:15;;;;;;;5.95;3.88;;;6.50;99.90;;;;;;5072915;28;20041;-76
2022/01/20 02:22:41;;;;;;;10.20;5.85;;;6.40;99.90;;;;;;5071016;28;20037;-76
2022/01/20 02:25:30;;;;;;;11.30;5.03;;;6.40;99.90;;;;;;5062815;28;20049;-76
2022/01/20 02:27:57;;;;;;;11.93;4.60;;;6.40;99.90;;;;;;5070552;28;20330;-76
2022/01/20 02:30:25;;;;;;;10.02;4.32;;;6.40;99.90;;;;;;5066361;28;21603;-76
2022/01/20 02:33:19;;;;;;;9.18;4.65;;;6.30;99.90;;;;;;5065870;28;20589;-76
2022/01/20 02:35:48;;;;;;;9.20;4.53;;;6.10;99.90;;;;;;5066525;28;20628;-76
2022/01/20 02:38:21;;;;;;;7.30;4.57;;;6.30;99.90;;;;;;5068538;28;20028;-76
2022/01/20 02:46:05;;;;;;;11.30;3.83;;;6.30;99.90;;;;;;5070231;28;20048;-76
2022/01/20 02:48:31;;;;;;;8.20;4.13;;;6.50;99.90;;;;;;5068324;28;20049;-76
2022/01/20 02:50:57;;;;;;;12.65;4.65;;;6.20;99.90;;;;;;5069659;28;20462;-76
2022/01/20 02:53:23;;;;;;;7.80;2.90;;;6.20;99.90;;;;;;5067238;28;20438;-76
2022/01/20 02:55:49;;;;;;;9.32;5.03;;;6.20;99.90;;;;;;5066446;28;20045;-76
2022/01/20 02:58:15;;;;;;;10.82;4.40;;;6.30;99.90;;;;;;5067147;28;20041;-76
2022/01/20 03:00:40;;;;;;;9.00;4.38;;;6.30;99.90;;;;;;5068775;28;20045;-76
2022/01/20 03:03:06;;;;;;;9.65;4.15;;;6.30;99.90;;;;;;5073540;28;20106;-76
2022/01/20 03:05:33;;;;;;;11.02;3.63;;;6.30;99.90;;;;;;5066602;28;20404;-76
2022/01/20 03:08:00;;;;;;;11.55;4.35;;;6.30;99.90;;;;;;5073515;28;20049;-76
2022/01/20 03:10:27;;;;;;;10.93;4.35;;;6.30;99.90;;;;;;5072860;28;20060;-76
2022/01/20 03:12:52;;;;;;;7.80;3.88;;;6.30;99.90;;;;;;5070058;28;20045;-76
2022/01/20 03:15:18;;;;;;;6.28;3.70;;;6.30;99.90;;;;;;5073312;28;20079;-75
2022/01/20 03:17:44;;;;;;;9.57;4.45;;;6.30;99.90;;;;;;5073847;28;20045;-76
2022/01/20 03:20:11;;;;;;;7.85;3.70;;;6.30;99.90;;;;;;5075652;28;20523;-76
2022/01/20 03:22:37;;;;;;;7.35;3.90;;;6.30;99.90;;;;;;5075956;28;20040;-76
2022/01/20 03:25:03;;;;;;;10.30;3.85;;;6.20;99.90;;;;;;5073776;28;20511;-76
2022/01/20 03:27:28;;;;;;;8.63;4.22;;;6.20;99.90;;;;;;5070404;28;20955;-76
2022/01/20 03:29:54;;;;;;;16.42;4.13;;;6.10;99.90;;;;;;5064334;28;20055;-75
2022/01/20 03:32:20;;;;;;;16.77;3.70;;;6.10;99.90;;;;;;5070053;28;20460;-76
2022/01/20 03:34:45;;;;;;;11.30;4.38;;;6.10;99.90;;;;;;5067841;28;20036;-76
2022/01/20 03:37:11;;;;;;;11.20;5.47;;;6.00;99.90;;;;;;5067116;28;20974;-75
2022/01/20 03:39:37;;;;;;;13.48;4.68;;;6.00;99.90;;;;;;5071445;28;20095;-76
2022/01/20 03:42:03;;;;;;;7.20;3.25;;;6.40;99.90;;;;;;5071327;28;20094;-76
2022/01/20 03:44:28;;;;;;;7.25;3.88;;;5.90;99.90;;;;;;5075725;28;20526;-76
2022/01/20 03:46:54;;;;;;;8.30;4.13;;;5.90;99.90;;;;;;5072662;28;20127;-76
2022/01/20 03:49:51;;;;;;;8.18;3.88;;;5.80;99.90;;;;;;5063471;28;20529;-76
2022/01/20 03:52:16;;;;;;;5.93;3.03;;;5.90;99.90;;;;;;5069753;28;20044;-76
2022/01/20 03:54:42;;;;;;;9.00;3.97;;;6.20;99.90;;;;;;5072721;28;20045;-75
2022/01/20 03:57:08;;;;;;;8.95;3.95;;;5.90;99.90;;;;;;5071268;28;20080;-76
2022/01/20 03:59:34;;;;;;;9.05;3.13;;;5.80;99.90;;;;;;5070388;28;20057;-75
2022/01/20 04:02:00;;;;;;;8.15;4.20;;;6.40;99.90;;;;;;5067928;28;20047;-76
2022/01/20 04:04:25;;;;;;;7.93;3.83;;;5.80;99.90;;;;;;5069738;28;20033;-76
2022/01/20 04:06:51;;;;;;;9.88;3.42;;;5.80;99.90;;;;;;5067865;28;20044;-76
2022/01/20 04:09:17;;;;;;;7.63;3.28;;;5.80;99.90;;;;;;5063315;28;20119;-76
2022/01/20 04:11:42;;;;;;;4.63;3.00;;;5.40;99.90;;;;;;5064313;28;20049;-76
2022/01/20 04:14:12;;;;;;;5.78;3.08;;;5.70;99.90;;;;;;5065813;28;20041;-76
2022/01/20 04:17:03;;;;;;;5.20;2.25;;;5.70;99.90;;;;;;5068451;28;20043;-76
2022/01/20 04:19:32;;;;;;;6.50;3.35;;;6.30;99.90;;;;;;5070652;28;20876;-76
2022/01/20 04:21:59;;;;;;;6.22;2.80;;;5.60;99.90;;;;;;5074500;28;20768;-76
2022/01/20 04:24:24;;;;;;;6.22;2.88;;;5.60;99.90;;;;;;5069189;28;20039;-76
2022/01/20 04:26:51;;;;;;;6.90;2.53;;;5.40;99.90;;;;;;5067299;28;20099;-76
2022/01/20 04:29:16;;;;;;;4.85;2.63;;;5.60;99.90;;;;;;5069290;28;20045;-76
2022/01/20 04:31:43;;;;;;;8.63;2.80;;;5.70;99.90;;;;;;5069459;28;20049;-76
2022/01/20 04:34:10;;;;;;;12.23;3.83;;;6.20;99.90;;;;;;5071078;28;20115;-76
2022/01/20 04:36:40;;;;;;;7.22;2.63;;;5.60;99.90;;;;;;5064323;28;20052;-76
2022/01/20 04:39:12;;;;;;;4.50;2.17;;;5.70;99.90;;;;;;5061375;28;20041;-76
2022/01/20 04:41:38;;;;;;;9.98;3.05;;;5.20;99.90;;;;;;5072127;28;20041;-76
2022/01/20 04:44:14;;;;;;;7.85;2.55;;;5.30;99.90;;;;;;5069224;28;20196;-75
2022/01/20 04:46:51;;;;;;;7.68;2.95;;;5.50;99.90;;;;;;5067863;28;20048;-76
2022/01/20 04:57:31;;;;;;;8.73;2.83;;;5.40;99.90;;;;;;5073431;28;20041;-76
2022/01/20 04:59:56;;;;;;;6.97;2.58;;;5.40;99.90;;;;;;5075588;28;20613;-76
2022/01/20 05:02:25;;;;;;;6.72;3.47;;;5.90;99.90;;;;;;5066514;28;20041;-75
2022/01/20 05:04:51;;;;;;;4.25;2.20;;;5.40;99.90;;;;;;5063580;28;20486;-76
2022/01/20 05:07:24;;;;;;;4.53;2.55;;;5.40;99.90;;;;;;5067892;28;20044;-76
2022/01/20 05:09:52;;;;;;;9.55;2.92;;;5.40;99.90;;;;;;5075143;28;20028;-76
2022/01/20 05:12:24;;;;;;;5.82;3.28;;;5.90;99.90;;;;;;5071253;28;20410;-76
2022/01/20 05:14:49;;;;;;;6.22;2.85;;;5.60;99.90;;;;;;5072329;28;20115;-76
2022/01/20 05:17:15;;;;;;;9.23;2.33;;;5.30;99.90;;;;;;5070303;28;20519;-76
2022/01/20 05:19:40;;;;;;;12.45;3.20;;;5.70;99.90;;;;;;5070168;28;20057;-76
2022/01/20 05:22:06;;;;;;;8.05;3.40;;;5.40;99.90;;;;;;5065587;28;20041;-76
2022/01/20 05:24:32;;;;;;;9.35;3.92;;;5.50;99.90;;;;;;5075063;28;20111;-76
2022/01/20 05:26:58;;;;;;;4.05;2.38;;;5.30;99.90;;;;;;5067820;28;20124;-76
2022/01/20 05:29:24;;;;;;;13.40;3.17;;;5.70;99.90;;;;;;5066000;28;20048;-76
2022/01/20 05:31:51;;;;;;;6.47;2.85;;;5.40;99.90;;;;;;5070072;28;20044;-76
2022/01/20 05:34:17;;;;;;;10.95;2.83;;;5.20;99.90;;;;;;5061868;28;20033;-76
2022/01/20 05:36:44;;;;;;;5.53;3.25;;;4.80;99.90;;;;;;5069134;28;20051;-76
2022/01/20 05:39:09;;;;;;;7.13;2.72;;;5.80;99.90;;;;;;5066673;28;20052;-76
2022/01/20 05:41:36;;;;;;;7.45;2.95;;;5.10;99.90;;;;;;5066366;28;20056;-76
2022/01/20 05:44:02;;;;;;;15.13;3.22;;;5.10;99.90;;;;;;5063216;28;20059;-76
2022/01/20 05:46:35;;;;;;;15.02;3.20;;;5.30;99.90;;;;;;5070653;28;20048;-76
2022/01/20 05:49:08;;;;;;;6.13;3.03;;;5.00;99.90;;;;;;5064086;28;20049;-76
2022/01/20 05:51:43;;;;;;;7.35;2.67;;;4.70;99.90;;;;;;5063745;28;20037;-76
2022/01/20 05:54:09;;;;;;;8.18;2.55;;;5.10;99.90;;;;;;5066364;28;20085;-76
2022/01/20 05:56:35;;;;;;;4.30;2.42;;;4.70;99.90;;;;;;5064679;28;20095;-76
2022/01/20 05:59:01;;;;;;;7.18;3.28;;;5.00;99.90;;;;;;5069661;28;20043;-76
2022/01/20 06:01:28;;;;;;;5.35;2.75;;;5.40;99.90;;;;;;5069528;28;20043;-76
2022/01/20 06:03:54;;;;;;;9.55;3.40;;;4.90;99.90;;;;;;5070322;28;20036;-76
2022/01/20 06:06:21;;;;;;;7.28;2.85;;;5.00;99.90;;;;;;5069442;28;20049;-76
2022/01/20 06:08:47;;;;;;;15.65;6.40;;;5.00;99.90;;;;;;5063317;28;20049;-76
2022/01/20 06:11:13;;;;;;;9.05;6.57;;;4.70;99.90;;;;;;5069957;28;20063;-76
2022/01/20 06:13:39;;;;;;;12.93;5.22;;;4.70;99.90;;;;;;5067671;28;20041;-75
2022/01/20 06:16:05;;;;;;;14.60;7.00;;;5.50;99.90;;;;;;5063744;28;20045;-76
2022/01/20 06:18:32;;;;;;;11.63;3.25;;;4.90;99.90;;;;;;5065376;28;20523;-76
2022/01/20 06:20:58;;;;;;;3.15;2.50;;;4.80;99.90;;;;;;5068014;28;20136;-76
2022/01/20 06:23:24;;;;;;;14.43;4.05;;;4.90;99.90;;;;;;5087025;27;20875;-75
2022/01/20 06:25:51;;;;;;;11.10;4.82;;;5.50;99.90;;;;;;5067925;28;20131;-76
2022/01/20 06:28:18;;;;;;;12.23;5.22;;;4.90;99.90;;;;;;5069367;28;20055;-76
2022/01/20 06:30:44;;;;;;;17.20;6.32;;;4.90;99.90;;;;;;5066607;28;20040;-76
2022/01/20 06:33:10;;;;;;;15.55;5.50;;;4.50;99.90;;;;;;5068156;28;20044;-76
2022/01/20 06:35:36;;;;;;;11.38;4.80;;;5.20;99.90;;;;;;5073097;28;20048;-75
2022/01/20 06:38:03;;;;;;;9.18;4.03;;;4.80;99.90;;;;;;5075932;28;20040;-76
2022/01/20 06:40:30;;;;;;;10.45;3.15;;;5.20;99.90;;;;;;5073522;28;20056;-80
2022/01/20 06:42:59;;;;;;;6.70;3.75;;;4.80;99.90;;;;;;5074918;28;20037;-81
2022/01/20 06:45:25;;;;;;;9.80;3.53;;;4.80;99.90;;;;;;5076687;28;20037;-79
2022/01/20 06:47:51;;;;;;;6.07;2.97;;;5.00;99.90;;;;;;5077299;28;20041;-77
2022/01/20 06:50:17;;;;;;;11.48;3.60;;;5.40;99.90;;;;;;5073670;28;20049;-77
2022/01/20 06:52:43;;;;;;;6.63;2.60;;;4.40;99.90;;;;;;5068806;28;20056;-77
2022/01/20 06:55:10;;;;;;;4.70;2.50;;;4.70;99.90;;;;;;5072257;28;20043;-78
2022/01/20 06:57:38;;;;;;;11.13;2.45;;;5.10;99.90;;;;;;5071771;28;20044;-77
2022/01/20 07:00:05;;;;;;;8.02;2.28;;;5.00;99.90;;;;;;5072121;28;20037;-85
2022/01/20 07:02:31;;;;;;;3.33;2.47;;;4.50;99.90;;;;;;5073685;28;20060;-75
2022/01/20 07:04:57;;;;;;;8.98;4.00;;;4.60;99.90;;;;;;5073045;28;20160;-75
2022/01/20 07:07:23;;;;;;;6.32;2.58;;;5.30;99.90;;;;;;5068966;28;20116;-75
2022/01/20 07:09:48;;;;;;;5.45;2.20;;;4.90;99.90;;;;;;5071334;28;20037;-76
2022/01/20 07:12:14;;;;;;;12.18;2.45;;;4.80;99.90;;;;;;5070089;28;20041;-76
2022/01/20 07:14:40;;;;;;;9.95;2.95;;;4.90;99.90;;;;;;5076757;28;20044;-76
2022/01/20 07:17:07;;;;;;;14.40;3.10;;;4.30;99.90;;;;;;5071919;28;20084;-76
2022/01/20 07:19:33;;;;;;;6.00;3.20;;;4.60;99.90;;;;;;5073763;28;20049;-76
2022/01/20 07:22:00;;;;;;;6.28;2.50;;;4.60;99.90;;;;;;5070734;28;20045;-76
2022/01/20 07:24:27;;;;;;;6.05;2.17;;;4.60;99.90;;;;;;5072715;28;20414;-76
2022/01/20 07:26:53;;;;;;;8.13;3.00;;;4.60;99.90;;;;;;5070005;28;20055;-76
2022/01/20 07:29:19;;;;;;;4.45;2.08;;;5.20;99.90;;;;;;5072952;28;20542;-79
2022/01/20 07:31:45;;;;;;;5.53;2.70;;;4.60;99.90;;;;;;5075162;28;20044;-76
2022/01/20 07:34:11;;;;;;;3.17;1.80;;;5.10;99.90;;;;;;5069026;28;20141;-75
2022/01/20 07:36:37;;;;;;;6.60;2.28;;;4.60;99.90;;;;;;5071558;28;20049;-76
2022/01/20 07:39:03;;;;;;;4.45;2.03;;;4.70;99.90;;;;;;5071250;28;20036;-76
2022/01/20 07:41:29;;;;;;;3.10;2.10;;;4.60;99.90;;;;;;5065635;28;20034;-77
2022/01/20 07:43:55;;;;;;;5.68;2.08;;;5.30;99.90;;;;;;5070836;28;20040;-77
2022/01/20 07:46:20;;;;;;;2.83;1.83;;;4.70;99.90;;;;;;5068216;28;20049;-77
2022/01/20 07:48:46;;;;;;;7.25;2.75;;;5.30;99.90;;;;;;5065937;28;20045;-77
2022/01/20 07:51:12;;;;;;;7.20;1.83;;;5.20;99.90;;;;;;5070689;28;20044;-76
2022/01/20 07:53:38;;;;;;;5.05;2.33;;;5.20;99.90;;;;;;5072387;28;20036;-84
2022/01/20 07:56:05;;;;;;;3.10;2.00;;;4.30;99.90;;;;;;5068732;28;20740;-77
2022/01/20 07:58:35;;;;;;;4.60;2.13;;;4.60;99.90;;;;;;5070780;28;20128;-78
2022/01/20 08:01:02;;;;;;;7.05;2.67;;;4.60;99.90;;;;;;5068668;28;20048;-84
2022/01/20 08:03:27;;;;;;;11.98;2.97;;;4.60;99.90;;;;;;5068455;28;20085;-77
2022/01/20 08:05:53;;;;;;;5.40;2.50;;;4.30;99.90;;;;;;5070627;28;20191;-77
2022/01/20 08:08:19;;;;;;;5.88;3.05;;;4.10;99.90;;;;;;5066049;28;20093;-76
2022/01/20 08:10:45;;;;;;;3.95;2.47;;;4.60;99.90;;;;;;5069988;28;20515;-77
2022/01/20 08:13:10;;;;;;;7.95;3.15;;;4.20;99.90;;;;;;5070312;28;20044;-76
2022/01/20 08:15:36;;;;;;;6.68;2.40;;;4.50;99.90;;;;;;5070380;28;20051;-77
2022/01/20 08:18:03;;;;;;;3.90;2.20;;;4.20;99.90;;;;;;5070470;28;20071;-76
2022/01/20 08:20:28;;;;;;;5.40;2.35;;;4.50;99.90;;;;;;5069390;28;21276;-76
2022/01/20 08:22:54;;;;;;;7.40;2.65;;;4.60;99.90;;;;;;5070060;28;20117;-77
2022/01/20 08:25:21;;;;;;;6.15;3.45;;;4.60;99.90;;;;;;5072979;28;20064;-77
2022/01/20 08:27:48;;;;;;;8.80;2.50;;;5.00;99.90;;;;;;5071052;28;20041;-77
2022/01/20 08:30:17;;;;;;;6.22;2.97;;;4.60;99.90;;;;;;5069397;28;20055;-77
2022/01/20 08:32:44;;;;;;;2.67;1.90;;;4.30;99.90;;;;;;5066433;28;20174;-78
2022/01/20 08:35:12;;;;;;;5.18;2.22;;;4.60;99.90;;;;;;5067090;28;20068;-78
2022/01/20 08:37:40;;;;;;;8.98;2.38;;;4.60;99.90;;;;;;5071173;28;20065;-77
2022/01/20 08:40:14;;;;;;;11.23;3.35;;;4.30;99.90;;;;;;5069876;28;20043;-78
2022/01/20 08:42:46;;;;;;;8.70;2.30;;;4.60;99.90;;;;;;5068223;28;20045;-78
2022/01/20 08:45:14;;;;;;;7.43;2.63;;;4.30;99.90;;;;;;5070510;28;20040;-77
2022/01/20 08:47:42;;;;;;;7.78;2.53;;;4.70;99.90;;;;;;5068381;28;20120;-77
2022/01/20 08:50:09;;;;;;;7.93;2.30;;;4.80;99.90;;;;;;5069846;28;20519;-77
2022/01/20 08:52:35;;;;;;;6.47;2.78;;;5.50;99.90;;;;;;5074275;28;20461;-77
2022/01/20 08:55:01;;;;;;;5.82;2.63;;;4.70;99.90;;;;;;5066491;28;20051;-77
2022/01/20 08:57:28;;;;;;;9.40;2.22;;;5.10;99.90;;;;;;5067595;28;20041;-77
2022/01/20 08:59:55;;;;;;;3.60;2.30;;;4.70;99.90;;;;;;5070067;28;20091;-78
2022/01/20 09:02:21;;;;;;;13.32;2.97;;;4.80;99.90;;;;;;5070979;28;20037;-77
2022/01/20 09:04:47;;;;;;;4.47;2.42;;;5.20;99.90;;;;;;5068960;28;20067;-77
2022/01/20 09:07:13;;;;;;;7.18;2.20;;;5.20;99.90;;;;;;5066523;28;20048;-77
2022/01/20 09:09:42;;;;;;;4.53;2.10;;;5.00;99.90;;;;;;5071509;28;20033;-78
2022/01/20 09:17:24;;;;;;;5.55;2.38;;;4.80;99.90;;;;;;5069069;28;20041;-77
2022/01/20 09:19:49;;;;;;;4.40;2.15;;;5.00;99.90;;;;;;5066846;28;20041;-77
2022/01/20 09:22:15;;;;;;;12.55;2.72;;;5.00;99.90;;;;;;5069601;28;20569;-77
2022/01/20 09:24:42;;;;;;;3.42;1.70;;;4.80;99.90;;;;;;5069994;28;20076;-84
2022/01/20 09:27:08;;;;;;;7.00;2.60;;;5.20;99.90;;;;;;5062372;28;20049;-76
2022/01/20 09:29:34;;;;;;;8.23;3.75;;;4.90;99.90;;;;;;5069032;28;20675;-78
2022/01/20 09:32:01;;;;;;;12.63;4.85;;;5.20;99.90;;;;;;5069580;28;20048;-78
2022/01/20 09:34:28;;;;;;;14.20;4.50;;;5.30;99.90;;;;;;5067036;28;20908;-78
2022/01/20 09:36:53;;;;;;;11.38;5.13;;;5.20;99.90;;;;;;5072083;28;20037;-78
2022/01/20 09:39:20;;;;;;;10.75;5.45;;;5.80;99.90;;;;;;5072987;28;20044;-78
2022/01/20 09:41:46;;;;;;;8.70;5.45;;;5.50;99.90;;;;;;5068262;28;20055;-78
2022/01/20 09:44:12;;;;;;;9.23;5.30;;;5.50;99.90;;;;;;5071067;28;20576;-78
2022/01/20 09:46:38;;;;;;;6.63;3.88;;;5.40;99.90;;;;;;5062591;28;20052;-78
2022/01/20 09:49:04;;;;;;;10.35;3.70;;;5.50;99.90;;;;;;5067378;28;20075;-78
2022/01/20 09:51:30;;;;;;;7.05;3.67;;;6.00;99.90;;;;;;5065957;28;20107;-78
2022/01/20 09:53:56;;;;;;;3.22;1.98;;;5.70;99.90;;;;;;5069165;28;20534;-78
2022/01/20 09:56:22;;;;;;;10.45;2.72;;;5.60;99.90;;;;;;5067395;28;20061;-78
2022/01/20 09:58:48;;;;;;;4.47;2.45;;;6.20;99.90;;;;;;5072033;28;20151;-78
2022/01/20 10:01:15;;;;;;;7.38;2.17;;;6.00;99.90;;;;;;5065534;28;20610;-78
2022/01/20 10:03:46;;;;;;;4.70;2.80;;;5.90;99.90;;;;;;5070724;28;20041;-78
2022/01/20 10:06:14;;;;;;;2.92;2.28;;;6.10;99.90;;;;;;5070122;28;20040;-78
2022/01/20 10:08:40;;;;;;;3.40;1.95;;;5.90;99.90;;;;;;5069642;28;20045;-78
2022/01/20 10:11:09;;;;;;;5.35;2.05;;;5.90;99.90;;;;;;5069037;28;20036;-78
2022/01/20 10:13:40;;;;;;;13.73;1.77;;;6.30;99.90;;;;;;5076151;28;20041;-78
2022/01/20 10:16:15;;;;;;;2.10;1.10;;;6.00;99.90;;;;;;5071740;28;20068;-78
2022/01/20 10:18:48;;;;;;;11.48;3.83;;;6.40;99.90;;;;;;5074856;28;20937;-78
2022/01/20 10:21:14;;;;;;;5.90;2.28;;;6.30;99.90;;;;;;5064244;28;20029;-78
2022/01/20 10:23:45;;;;;;;9.15;2.97;;;6.40;99.90;;;;;;5074767;28;20044;-78
2022/01/20 10:26:14;;;;;;;7.55;1.73;;;6.40;99.90;;;;;;5073682;28;20056;-78
2022/01/20 10:29:03;;;;;;;7.45;3.40;;;6.60;99.90;;;;;;5074716;28;20128;-78
2022/01/20 10:31:43;;;;;;;7.15;2.03;;;6.60;99.90;;;;;;5074268;28;20071;-79
2022/01/20 10:34:28;;;;;;;4.47;2.00;;;6.70;99.90;;;;;;5068664;28;20115;-77
2022/01/20 10:36:56;;;;;;;5.85;2.10;;;6.80;99.90;;;;;;5075331;28;20048;-78
2022/01/20 10:39:38;;;;;;;5.75;2.53;;;6.90;99.90;;;;;;5074525;28;20048;-79
2022/01/20 10:42:05;;;;;;;9.48;2.05;;;6.90;99.90;;;;;;5069608;28;20036;-78
2022/01/20 10:44:55;;;;;;;7.10;2.35;;;6.90;99.90;;;;;;5071547;28;20112;-79
2022/01/20 10:47:23;;;;;;;7.72;3.30;;;7.00;99.90;;;;;;5074036;28;20482;-78
2022/01/20 10:49:49;;;;;;;4.07;2.75;;;7.00;99.90;;;;;;5067006;28;20124;-79
2022/01/20 10:52:20;;;;;;;6.40;2.45;;;7.10;99.90;;;;;;5070514;28;20044;-79
2022/01/20 10:54:54;;;;;;;4.63;2.05;;;7.20;99.90;;;;;;5075611;28;20045;-79
2022/01/20 10:57:32;;;;;;;3.22;2.00;;;7.20;99.90;;;;;;5074058;28;20076;-79
2022/01/20 11:00:03;;;;;;;5.65;2.10;;;7.00;99.90;;;;;;5070022;28;20137;-79
2022/01/20 11:02:30;;;;;;;5.47;2.45;;;7.20;99.90;;;;;;5066100;28;20032;-78
2022/01/20 11:04:57;;;;;;;4.03;2.10;;;7.30;99.90;;;;;;5076570;28;20102;-78
2022/01/20 11:07:24;;;;;;;3.45;1.58;;;7.00;99.90;;;;;;5075270;28;20036;-78
2022/01/20 11:10:03;;;;;;;6.40;1.70;;;7.30;99.90;;;;;;5074855;28;20079;-78
2022/01/20 11:12:29;;;;;;;7.45;2.50;;;7.20;99.90;;;;;;5071968;28;20538;-77
2022/01/20 11:14:57;;;;;;;6.07;1.83;;;7.30;99.90;;;;;;5067954;28;20147;-82
2022/01/20 11:17:29;;;;;;;3.17;1.95;;;7.40;99.90;;;;;;5068598;28;20037;-81
2022/01/20 11:20:16;;;;;;;8.25;2.50;;;7.40;99.90;;;;;;5073590;28;20124;-87
2022/01/20 11:22:57;;;;;;;4.55;1.90;;;7.50;99.90;;;;;;5071618;28;20049;-80
2022/01/20 11:25:26;;;;;;;4.13;2.28;;;7.50;99.90;;;;;;5075539;28;20052;-80
2022/01/20 11:28:09;;;;;;;8.40;2.90;;;7.50;99.90;;;;;;5068245;28;20072;-81
2022/01/20 11:30:40;;;;;;;10.80;2.50;;;7.60;99.90;;;;;;5074030;28;20682;-81
2022/01/20 11:33:15;;;;;;;9.25;2.65;;;7.60;99.90;;;;;;5078177;28;20121;-81
2022/01/20 11:35:59;;;;;;;5.40;2.17;;;7.60;99.90;;;;;;5069725;28;20072;-82
2022/01/20 11:38:46;;;;;;;7.05;2.47;;;8.00;99.90;;;;;;5066928;28;20036;-80
2022/01/20 11:41:14;;;;;;;6.65;1.73;;;7.60;99.90;;;;;;5069099;28;20044;-82
2022/01/20 11:43:51;;;;;;;5.68;2.53;;;7.60;99.90;;;;;;5070459;28;20091;-83
2022/01/20 11:46:23;;;;;;;5.45;2.63;;;7.70;99.90;;;;;;5071302;28;20136;-83
2022/01/20 11:48:56;;;;;;;3.22;2.13;;;7.70;99.90;;;;;;5072697;28;20036;-83
2022/01/20 11:51:23;;;;;;;4.90;2.17;;;7.70;99.90;;;;;;5072168;28;20530;-82
2022/01/20 11:53:58;;;;;;;6.15;3.42;;;7.70;99.90;;;;;;5076462;28;20036;-83
2022/01/20 11:56:36;;;;;;;4.60;2.28;;;7.80;99.90;;;;;;5066309;28;20052;-83
2022/01/20 11:59:06;;;;;;;3.85;1.80;;;7.90;99.90;;;;;;5066753;28;20041;-83
2022/01/20 12:01:53;;;;;;;7.85;2.53;;;7.80;99.90;;;;;;5068483;28;20056;-83
2022/01/20 12:04:30;;;;;;;6.22;2.95;;;7.70;99.90;;;;;;5071384;28;20047;-83
2022/01/20 12:06:56;;;;;;;6.95;2.95;;;7.60;99.90;;;;;;5074584;28;20040;-83
2022/01/20 12:09:36;;;;;;;4.68;3.17;;;8.40;99.90;;;;;;5067837;28;20040;-82
2022/01/20 12:12:04;;;;;;;5.43;2.97;;;7.50;99.90;;;;;;5069350;28;20033;-82
2022/01/20 12:14:35;;;;;;;6.85;4.03;;;7.50;99.90;;;;;;5068693;28;20111;-82
2022/01/20 12:17:03;;;;;;;9.82;3.72;;;7.50;99.90;;;;;;5072426;28;20040;-83
2022/01/20 12:19:30;;;;;;;2.40;1.50;;;7.50;99.90;;;;;;5071040;28;20032;-85
2022/01/20 12:21:56;;;;;;;10.40;2.88;;;6.60;99.90;;;;;;5064313;28;20137;-81
2022/01/20 12:24:22;;;;;;;5.38;2.35;;;7.60;99.90;;;;;;5070899;28;20531;-81
2022/01/20 12:26:47;;;;;;;6.72;3.15;;;7.60;99.90;;;;;;5070969;28;20092;-81
2022/01/20 12:29:13;;;;;;;6.25;3.35;;;7.70;99.90;;;;;;5067639;28;20136;-82
2022/01/20 12:31:53;;;;;;;7.43;3.17;;;7.80;99.90;;;;;;5068285;28;20036;-81
2022/01/20 12:34:19;;;;;;;7.57;2.67;;;7.90;99.90;;;;;;5067768;28;20119;-81
2022/01/20 12:36:57;;;;;;;6.55;3.15;;;7.80;99.90;;;;;;5074399;28;20041;-81
2022/01/20 12:39:28;;;;;;;5.97;2.80;;;7.70;99.90;;;;;;5070530;28;20123;-82
2022/01/20 12:41:56;;;;;;;8.20;3.10;;;7.60;99.90;;;;;;5074756;28;20037;-80
2022/01/20 12:44:21;;;;;;;5.30;2.80;;;7.50;99.90;;;;;;5071137;28;20040;-81
2022/01/20 12:46:47;;;;;;;2.58;2.10;;;7.40;99.90;;;;;;5075883;28;20422;-80
2022/01/20 12:49:18;;;;;;;8.65;2.67;;;7.30;99.90;;;;;;5069936;28;20075;-81
2022/01/20 12:51:46;;;;;;;7.35;2.92;;;7.20;99.90;;;;;;5066452;28;20624;-81
2022/01/20 12:54:16;;;;;;;5.78;2.58;;;7.20;99.90;;;;;;5074616;28;20094;-81
2022/01/20 12:56:45;;;;;;;6.35;3.00;;;7.30;99.90;;;;;;5072499;28;20546;-80
2022/01/20 12:59:16;;;;;;;7.78;2.45;;;7.40;99.90;;;;;;5074050;28;20128;-81
2022/01/20 13:01:44;;;;;;;12.55;2.85;;;7.60;99.90;;;;;;5067527;28;20556;-82
2022/01/20 13:04:13;;;;;;;6.00;2.63;;;7.70;99.90;;;;;;5074538;28;20550;-82
2022/01/20 13:06:47;;;;;;;4.40;1.63;;;7.90;99.90;;;;;;5077272;28;20127;-82
2022/01/20 13:09:13;;;;;;;7.43;3.05;;;7.90;99.90;;;;;;5070186;28;20044;-81
2022/01/20 13:11:44;;;;;;;7.07;3.15;;;8.00;99.90;;;;;;5066584;28;20045;-79
2022/01/20 13:14:11;;;;;;;4.93;2.17;;;8.00;99.90;;;;;;5071602;28;20049;-78
2022/01/20 13:16:48;;;;;;;14.98;2.40;;;8.10;99.90;;;;;;5067231;28;20045;-78
2022/01/20 13:19:14;;;;;;;8.05;2.67;;;8.10;99.90;;;;;;5073357;28;20067;-79
2022/01/20 13:21:52;;;;;;;7.45;2.50;;;8.00;99.90;;;;;;5074999;28;20044;-79
2022/01/20 13:24:29;;;;;;;2.88;1.65;;;8.10;99.90;;;;;;5067726;28;20040;-78
2022/01/20 13:26:56;;;;;;;6.88;1.65;;;8.10;99.90;;;;;;5071731;28;20211;-78
2022/01/20 13:29:24;;;;;;;4.47;2.28;;;8.10;99.90;;;;;;5066280;28;20045;-77
2022/01/20 13:31:59;;;;;;;5.15;2.38;;;8.20;99.90;;;;;;5074808;28;20176;-78
2022/01/20 13:34:25;;;;;;;5.28;2.50;;;8.20;99.90;;;;;;5067370;28;20090;-78
2022/01/20 13:36:53;;;;;;;1.00;0.95;;;8.20;99.90;;;;;;5063169;28;20119;-78
2022/01/20 13:39:34;;;;;;;4.10;2.03;;;8.20;99.90;;;;;;5061070;28;20827;-78
2022/01/20 13:42:21;;;;;;;2.47;1.23;;;8.20;99.90;;;;;;5066627;28;20515;-78
2022/01/20 13:45:13;;;;;;;2.30;1.35;;;8.30;99.90;;;;;;5072060;28;20045;-78
2022/01/20 13:48:09;;;;;;;1.55;0.80;;;8.20;99.90;;;;;;5067407;28;20041;-78
2022/01/20 13:50:37;;;;;;;3.05;1.85;;;8.00;99.90;;;;;;5057805;28;20073;-78
2022/01/20 13:53:13;;;;;;;7.05;1.80;;;7.90;99.90;;;;;;5065325;28;20044;-78
2022/01/20 13:55:40;;;;;;;4.68;2.42;;;7.70;99.90;;;;;;5074015;28;20044;-78
2022/01/20 13:58:06;;;;;;;2.22;1.55;;;7.70;99.90;;;;;;5065553;28;20049;-78
2022/01/20 14:00:35;;;;;;;3.83;1.15;;;7.60;99.90;;;;;;5061724;28;20037;-78
2022/01/20 14:03:05;;;;;;;4.00;1.67;;;7.50;99.90;;;;;;5066501;28;20123;-78
2022/01/20 14:05:33;;;;;;;7.07;1.88;;;7.50;99.90;;;;;;5069726;28;20041;-78
2022/01/20 14:08:00;;;;;;;3.83;1.05;;;7.50;99.90;;;;;;5064722;28;20036;-78